Impacts METAR Board INFO
IDs:

KMCB - McComb/Lewis Fld, MS, US

Updated at: 0008 UTC 23 Feb 2018
Potential Impact None Slight Moderate High
Time22/12Z 22/13Z 22/14Z 22/15Z 22/16Z 22/17Z 22/18Z 22/19Z 22/20Z 22/21Z 22/22Z 22/23Z 23/00Z
VIS 10 10 10 10 10 10
CIG13 19 23 14 -- -- -- 50 49 -- -- -- --
CoverOVCOVCOVCOVC------BKNBKNCLRSCTFEWCLR
FltCatVFRVFRVFRVFRVFRVFR
WX--------------------------
WDir160150160190150150150160160160
WSpd5 7 9 7 14 13 17 14 13 11
WGst-- -- -- -- -- -- -- -- 20 22 -- -- --
Raw hourly METARs
KMCB 221153Z AUTO 16005KT OVC013 22/20 A3027 RMK AO2 SLP246 T02170200 10228 20217 53010 $
KMCB 221253Z AUTO 15007KT SCT013 BKN019 OVC024 22/20 A3028 RMK AO2 SLP249 T02170200 $
KMCB 221353Z AUTO 16009KT FEW014 OVC023 23/21 A3031 RMK AO2 SLP257 T02280206 $
KMCB 221453Z AUTO 19007KT BKN014 BKN019 OVC027 23/20 A3032 RMK AO2 SLP262 T02330200 51013 $
KMCB 221553Z AUTO 24/19 A3032 RMK AO2 SLP262 T02440189 PWINO $
KMCB 221653Z AUTO A3032 RMK AO2 SLPNO PWINO FZRANO PNO $
KMCB 221753Z AUTO A3030 RMK AO2 SLPNO 6//// 58005 PWINO FZRANO PNO $
KMCB 221853Z AUTO 15014KT 10SM SCT043 BKN050 29/17 A3027 RMK AO2 SLP245 T02890167
KMCB 221953Z AUTO 15013G20KT 10SM BKN049 BKN065 29/17 A3025 RMK AO2 SLP238 T02890167
KMCB 222053Z AUTO 15017G22KT 10SM CLR 29/16 A3023 RMK AO2 SLP231 6//// T02890156 56025
KMCB 222153Z AUTO 16014KT 10SM SCT060 28/16 A3023 RMK AO2 SLP230 T02830161
KMCB 222253Z AUTO 16013KT 10SM FEW045 28/16 A3023 RMK AO2 SLP232 T02780161
KMCB 222353Z AUTO 16011KT 10SM CLR 26/17 A3024 RMK AO2 SLP234 6//// T02560167 10294 20250 53003